createdAt,value
2024-01-25T00:02:19.192Z,7.83
2024-01-25T00:04:46.296Z,7.77
2024-01-25T00:07:14.080Z,7.70
2024-01-25T00:09:41.357Z,7.75
2024-01-25T00:12:08.440Z,7.75
2024-01-25T00:14:35.391Z,7.72
2024-01-25T00:17:02.391Z,7.68
2024-01-25T00:19:29.347Z,7.67
2024-01-25T00:21:56.491Z,7.81
2024-01-25T00:24:23.498Z,7.70
2024-01-25T00:26:50.483Z,7.52
2024-01-25T00:29:17.726Z,7.41
2024-01-25T00:31:44.925Z,7.35
2024-01-25T00:34:14.615Z,7.37
2024-01-25T00:36:42.012Z,7.38
2024-01-25T00:39:09.548Z,7.48
2024-01-25T00:41:37.012Z,7.58
2024-01-25T00:44:04.271Z,7.41
2024-01-25T00:46:31.448Z,7.36
2024-01-25T00:48:59.058Z,7.27
2024-01-25T00:51:26.369Z,7.43
2024-01-25T00:53:53.541Z,7.36
2024-01-25T00:56:20.934Z,7.10
2024-01-25T00:58:48.260Z,6.98
2024-01-25T01:01:15.735Z,6.99
2024-01-25T01:03:43.198Z,7.00
2024-01-25T01:06:11.028Z,6.79
2024-01-25T01:08:38.412Z,6.82
2024-01-25T01:11:06.167Z,6.66
2024-01-25T01:13:33.248Z,6.69
2024-01-25T01:16:00.316Z,6.77
2024-01-25T01:18:27.384Z,6.75
2024-01-25T01:20:54.399Z,6.92
2024-01-25T01:23:21.571Z,6.89
2024-01-25T01:25:48.587Z,6.82
2024-01-25T01:28:16.164Z,6.81
2024-01-25T01:30:43.355Z,6.90
2024-01-25T01:33:10.758Z,6.77
2024-01-25T01:35:38.141Z,6.66
2024-01-25T01:38:05.410Z,6.64
2024-01-25T01:40:32.971Z,6.77
2024-01-25T01:43:03.511Z,6.69
2024-01-25T01:45:30.859Z,6.75
2024-01-25T01:47:58.648Z,6.83
2024-01-25T01:50:26.126Z,6.61
2024-01-25T01:52:53.446Z,6.65
2024-01-25T01:55:21.015Z,6.75
2024-01-25T01:57:48.570Z,6.66
2024-01-25T02:00:17.989Z,6.63
2024-01-25T02:02:46.305Z,6.58
2024-01-25T02:05:14.607Z,6.54
2024-01-25T02:07:42.155Z,6.44
2024-01-25T02:10:12.920Z,6.53
2024-01-25T02:12:40.088Z,6.65
2024-01-25T02:15:07.339Z,6.61
2024-01-25T02:17:34.539Z,6.51
2024-01-25T02:20:04.162Z,6.23
2024-01-25T02:22:31.377Z,6.44
2024-01-25T02:24:58.353Z,6.40
2024-01-25T02:27:25.448Z,6.55
2024-01-25T02:29:52.516Z,6.56
2024-01-25T02:32:19.694Z,6.39
2024-01-25T02:34:46.762Z,6.35
2024-01-25T02:37:18.606Z,6.55
2024-01-25T02:39:46.304Z,6.31
2024-01-25T02:42:14.803Z,6.15
2024-01-25T02:44:41.973Z,6.06
2024-01-25T02:47:08.876Z,6.15
2024-01-25T02:49:36.222Z,6.10
2024-01-25T02:52:04.138Z,6.01
2024-01-25T02:54:31.307Z,5.98
2024-01-25T02:56:58.247Z,6.06
2024-01-25T02:59:27.965Z,6.15
2024-01-25T03:01:56.163Z,6.04
2024-01-25T03:04:23.410Z,5.96
2024-01-25T03:06:50.773Z,5.98
2024-01-25T03:09:18.566Z,6.16
2024-01-25T03:11:45.460Z,6.10
2024-01-25T03:14:12.495Z,6.17
2024-01-25T03:16:39.472Z,6.25
2024-01-25T03:19:06.623Z,6.17
2024-01-25T03:21:35.100Z,6.47
2024-01-25T03:24:02.418Z,6.49
2024-01-25T03:26:29.823Z,6.41
2024-01-25T03:28:56.813Z,6.49
2024-01-25T03:31:23.914Z,6.33
2024-01-25T03:33:51.046Z,6.33
2024-01-25T03:36:18.401Z,6.41
2024-01-25T03:38:45.402Z,6.41
2024-01-25T03:41:12.363Z,6.28
2024-01-25T03:43:44.229Z,6.41
2024-01-25T03:46:13.384Z,6.27
2024-01-25T03:48:40.560Z,6.46
2024-01-25T03:51:08.070Z,6.42
2024-01-25T03:53:35.005Z,6.31
2024-01-25T03:56:02.058Z,6.19
2024-01-25T03:58:29.765Z,6.18
2024-01-25T04:00:56.844Z,6.22
2024-01-25T04:03:24.024Z,6.34
2024-01-25T04:05:51.035Z,6.36
2024-01-25T04:08:18.022Z,6.46
2024-01-25T04:10:45.009Z,6.51
2024-01-25T04:13:11.948Z,6.43
2024-01-25T04:15:39.050Z,6.32
2024-01-25T04:18:06.349Z,6.28
2024-01-25T04:20:35.773Z,6.27
2024-01-25T04:23:03.251Z,6.19
2024-01-25T04:25:33.253Z,6.23
2024-01-25T04:28:01.714Z,6.21
2024-01-25T04:30:28.908Z,6.26
2024-01-25T04:32:57.650Z,6.30
2024-01-25T04:35:24.662Z,6.33
2024-01-25T04:37:52.269Z,6.34
2024-01-25T04:40:19.396Z,6.39
2024-01-25T04:42:46.868Z,6.30
2024-01-25T04:45:13.811Z,6.23
2024-01-25T04:47:41.314Z,6.37
2024-01-25T04:50:09.138Z,6.48
2024-01-25T04:52:36.315Z,6.53
2024-01-25T04:55:03.408Z,6.45
2024-01-25T04:57:30.700Z,6.60
2024-01-25T04:59:57.782Z,6.68
2024-01-25T05:02:25.121Z,6.64
2024-01-25T05:04:52.195Z,6.59
2024-01-25T05:07:19.311Z,6.54
2024-01-25T05:09:46.467Z,6.57
2024-01-25T05:12:13.488Z,6.56
2024-01-25T05:14:40.809Z,6.61
2024-01-25T05:17:07.825Z,6.63
2024-01-25T05:19:34.930Z,6.62
2024-01-25T05:22:02.947Z,6.77
2024-01-25T05:24:34.345Z,6.60
2024-01-25T05:27:01.504Z,6.76
2024-01-25T05:29:28.433Z,6.54
2024-01-25T05:31:55.540Z,6.46
2024-01-25T05:34:22.693Z,6.39
2024-01-25T05:36:49.748Z,6.44
2024-01-25T05:39:16.740Z,6.37
2024-01-25T05:41:46.313Z,6.34
2024-01-25T05:44:14.150Z,6.17
2024-01-25T05:46:41.569Z,6.19
2024-01-25T05:49:08.796Z,6.14
2024-01-25T05:51:36.364Z,6.11
2024-01-25T05:54:03.824Z,6.26
2024-01-25T05:56:31.205Z,6.19
2024-01-25T05:58:58.379Z,6.06
2024-01-25T06:01:26.239Z,6.04
2024-01-25T06:03:53.515Z,6.04
2024-01-25T06:06:20.718Z,6.04
2024-01-25T06:08:54.948Z,5.81
2024-01-25T06:11:26.025Z,5.91
2024-01-25T06:13:53.085Z,5.75
2024-01-25T06:16:20.341Z,5.97
2024-01-25T06:18:50.261Z,5.82
2024-01-25T06:21:17.705Z,5.59
2024-01-25T06:23:44.739Z,5.49
2024-01-25T06:26:12.081Z,5.62
2024-01-25T06:28:39.083Z,5.57
2024-01-25T06:31:06.300Z,5.43
2024-01-25T06:33:33.488Z,5.30
2024-01-25T06:36:01.624Z,5.30
2024-01-25T06:38:28.540Z,5.24
2024-01-25T06:40:55.919Z,5.29
2024-01-25T06:43:23.003Z,5.32
2024-01-25T06:45:50.126Z,5.29
2024-01-25T06:48:20.562Z,5.12
2024-01-25T06:50:48.108Z,5.14
2024-01-25T06:53:15.174Z,5.11
2024-01-25T06:55:43.429Z,5.12
2024-01-25T06:58:10.694Z,5.32
2024-01-25T07:00:40.103Z,5.34
2024-01-25T07:03:07.800Z,5.43
2024-01-25T07:05:36.879Z,5.32
2024-01-25T07:08:04.492Z,5.16
2024-01-25T07:10:31.593Z,5.34
2024-01-25T07:12:58.753Z,5.31
2024-01-25T07:15:25.709Z,5.55
2024-01-25T07:17:52.967Z,5.50
2024-01-25T07:20:22.606Z,5.45
2024-01-25T07:22:51.191Z,5.43
2024-01-25T07:25:18.186Z,5.57
2024-01-25T07:27:48.930Z,5.57
2024-01-25T07:30:16.650Z,5.73
2024-01-25T07:32:43.974Z,5.70
2024-01-25T07:35:11.462Z,5.76
2024-01-25T07:37:38.649Z,5.54
2024-01-25T07:40:06.400Z,5.33
2024-01-25T07:42:33.547Z,5.37
2024-01-25T07:45:00.772Z,5.40
2024-01-25T07:47:27.843Z,5.48
2024-01-25T07:49:55.074Z,5.54
2024-01-25T07:52:23.371Z,5.81
2024-01-25T07:54:51.350Z,5.68
2024-01-25T07:57:18.712Z,5.68
2024-01-25T07:59:46.568Z,5.86
2024-01-25T08:02:20.150Z,5.86
2024-01-25T08:04:48.657Z,6.05
2024-01-25T08:07:15.868Z,5.94
2024-01-25T08:09:44.402Z,5.73
2024-01-25T08:12:12.177Z,5.52
2024-01-25T08:14:39.613Z,5.30
2024-01-25T08:17:12.132Z,5.47
2024-01-25T08:19:39.498Z,5.54
2024-01-25T08:22:06.902Z,5.73
2024-01-25T08:24:45.717Z,6.07
2024-01-25T08:27:16.171Z,6.13
2024-01-25T08:29:43.604Z,6.13
2024-01-25T08:32:17.362Z,6.04
2024-01-25T08:34:44.453Z,5.91
2024-01-25T08:37:11.905Z,6.05
2024-01-25T08:39:39.607Z,6.06
2024-01-25T08:42:07.851Z,6.33
2024-01-25T08:44:35.221Z,6.36
2024-01-25T08:47:05.835Z,6.39
2024-01-25T08:49:33.594Z,6.28
2024-01-25T08:52:01.315Z,6.34
2024-01-25T08:54:28.562Z,6.35
2024-01-25T08:56:55.631Z,6.52
2024-01-25T08:59:22.788Z,6.48
2024-01-25T09:01:49.959Z,6.64
2024-01-25T09:04:17.651Z,6.60
2024-01-25T09:06:44.829Z,6.64
2024-01-25T09:09:14.910Z,6.48
2024-01-25T09:11:42.009Z,6.55
2024-01-25T09:14:09.415Z,6.51
2024-01-25T09:16:38.956Z,6.51
2024-01-25T09:19:06.672Z,6.51
2024-01-25T09:21:34.228Z,6.58
2024-01-25T09:24:01.383Z,6.51
2024-01-25T09:26:32.379Z,6.51
2024-01-25T09:29:10.965Z,6.42
2024-01-25T09:31:38.305Z,6.37
2024-01-25T09:34:08.658Z,6.28
2024-01-25T09:36:36.174Z,6.15
2024-01-25T09:39:05.390Z,6.13
2024-01-25T09:41:32.951Z,6.25
2024-01-25T09:44:00.300Z,6.37
2024-01-25T09:46:28.027Z,6.58
2024-01-25T09:48:55.642Z,6.60
2024-01-25T09:51:34.905Z,6.83
2024-01-25T09:54:06.018Z,6.76
2024-01-25T09:56:34.499Z,6.90
2024-01-25T09:59:03.676Z,7.08
2024-01-25T10:01:30.818Z,7.44
2024-01-25T10:03:58.298Z,7.65
2024-01-25T10:06:25.864Z,7.48
2024-01-25T10:08:54.217Z,7.53
2024-01-25T10:11:21.285Z,7.59
2024-01-25T10:13:52.167Z,7.44
2024-01-25T10:16:20.721Z,7.54
2024-01-25T10:18:49.717Z,7.72
2024-01-25T10:21:19.121Z,7.98
2024-01-25T10:23:48.174Z,8.15
2024-01-25T10:26:17.165Z,8.17
2024-01-25T10:28:44.672Z,8.34
2024-01-25T10:31:12.120Z,8.43
2024-01-25T10:33:40.260Z,8.51
2024-01-25T10:36:09.928Z,8.39
2024-01-25T10:38:38.244Z,8.29
2024-01-25T10:41:09.663Z,8.62
2024-01-25T10:43:37.625Z,8.63
2024-01-25T10:46:06.009Z,8.62
2024-01-25T10:48:34.171Z,8.84
2024-01-25T10:51:04.657Z,8.82
2024-01-25T10:53:34.444Z,8.94
2024-01-25T10:56:02.832Z,8.93
2024-01-25T10:58:37.926Z,8.85
2024-01-25T11:01:15.867Z,8.93
2024-01-25T11:03:46.985Z,8.94
2024-01-25T11:06:14.931Z,9.17
2024-01-25T11:08:42.603Z,9.20
2024-01-25T11:11:12.348Z,9.35
2024-01-25T11:13:45.756Z,9.56
2024-01-25T11:16:19.302Z,9.66
2024-01-25T11:18:51.394Z,9.86
2024-01-25T11:21:30.078Z,10.07
2024-01-25T11:24:04.227Z,10.10
2024-01-25T11:26:34.239Z,10.23
2024-01-25T11:29:04.172Z,10.30
2024-01-25T11:31:31.436Z,10.51
2024-01-25T11:34:01.330Z,10.58
2024-01-25T11:36:30.141Z,10.66
2024-01-25T11:38:58.883Z,10.81
2024-01-25T11:41:26.285Z,10.95
2024-01-25T11:43:54.053Z,10.99
2024-01-25T11:46:21.630Z,11.09
2024-01-25T11:48:48.742Z,11.20
2024-01-25T11:51:16.081Z,11.44
2024-01-25T11:53:43.308Z,11.44
2024-01-25T11:56:19.322Z,11.43
2024-01-25T11:58:47.600Z,11.45
2024-01-25T12:01:15.744Z,11.48
2024-01-25T12:03:42.967Z,11.62
2024-01-25T12:06:10.891Z,11.89
2024-01-25T12:08:44.049Z,11.91
2024-01-25T12:11:14.940Z,11.92
2024-01-25T12:13:45.284Z,12.02
2024-01-25T12:16:13.762Z,11.96
2024-01-25T12:18:44.331Z,11.90
2024-01-25T12:21:11.676Z,11.85
2024-01-25T12:23:40.128Z,11.84
2024-01-25T12:26:15.152Z,11.88
2024-01-25T12:28:42.648Z,11.80
2024-01-25T12:31:10.623Z,11.87
2024-01-25T12:33:38.116Z,11.89
2024-01-25T12:36:06.285Z,12.03
2024-01-25T12:38:36.632Z,12.02
2024-01-25T12:41:04.595Z,12.26
2024-01-25T12:43:32.621Z,12.45
2024-01-25T12:46:09.414Z,12.42
2024-01-25T12:48:46.459Z,12.37
2024-01-25T12:51:15.757Z,12.27
2024-01-25T12:53:43.010Z,12.43
2024-01-25T12:56:10.657Z,12.36
2024-01-25T12:58:37.618Z,12.50
2024-01-25T13:01:06.262Z,12.51
2024-01-25T13:03:34.290Z,12.38
2024-01-25T13:06:04.806Z,12.37
2024-01-25T13:08:32.007Z,12.48
2024-01-25T13:10:59.465Z,12.51
2024-01-25T13:13:27.238Z,12.61
2024-01-25T13:15:54.660Z,12.61
2024-01-25T13:18:21.824Z,12.59
2024-01-25T13:20:49.958Z,12.60
2024-01-25T13:23:17.346Z,12.56
2024-01-25T13:25:44.577Z,12.62
2024-01-25T13:28:11.700Z,12.79
2024-01-25T13:30:38.789Z,12.88
2024-01-25T13:33:06.081Z,12.80
2024-01-25T13:35:33.433Z,12.86
2024-01-25T13:38:03.287Z,12.89
2024-01-25T13:40:30.518Z,12.90
2024-01-25T13:42:58.069Z,12.90
2024-01-25T13:45:25.159Z,12.86
2024-01-25T13:47:52.381Z,12.95
2024-01-25T13:50:19.346Z,12.85
2024-01-25T13:52:46.244Z,12.79
2024-01-25T13:55:13.275Z,12.72
2024-01-25T13:57:40.431Z,12.70
2024-01-25T14:00:10.171Z,12.64
2024-01-25T14:02:37.382Z,12.69
2024-01-25T14:05:04.612Z,12.88
2024-01-25T14:07:31.626Z,12.94
2024-01-25T14:10:00.025Z,12.84
2024-01-25T14:12:27.217Z,12.70
2024-01-25T14:14:54.531Z,12.64
2024-01-25T14:17:22.821Z,12.56
2024-01-25T14:19:50.363Z,12.60
2024-01-25T14:22:28.280Z,12.50
2024-01-25T14:24:59.474Z,12.45
2024-01-25T14:27:28.197Z,12.41
2024-01-25T14:29:55.506Z,12.39
2024-01-25T14:32:24.491Z,12.39
2024-01-25T14:34:54.743Z,12.35
2024-01-25T14:37:24.307Z,12.33
2024-01-25T14:40:02.827Z,12.20
2024-01-25T14:42:40.223Z,12.21
2024-01-25T14:45:07.774Z,12.08
2024-01-25T14:47:34.997Z,11.94
2024-01-25T14:50:02.033Z,11.82
2024-01-25T14:52:29.126Z,11.79
2024-01-25T14:54:56.097Z,11.79
2024-01-25T14:57:23.164Z,11.70
2024-01-25T14:59:50.199Z,11.62
2024-01-25T15:02:17.203Z,11.54
2024-01-25T15:04:44.219Z,11.50
2024-01-25T15:07:11.640Z,11.39
2024-01-25T15:09:38.769Z,11.27
2024-01-25T15:12:09.554Z,11.38
2024-01-25T15:14:36.904Z,11.34
2024-01-25T15:17:04.006Z,11.31
2024-01-25T15:19:31.055Z,11.14
2024-01-25T15:21:58.101Z,11.11
2024-01-25T15:24:25.345Z,11.00
2024-01-25T15:26:52.334Z,10.92
2024-01-25T15:29:19.443Z,11.00
2024-01-25T15:31:46.375Z,10.90
2024-01-25T15:34:13.812Z,10.98
2024-01-25T15:36:45.089Z,10.90
2024-01-25T15:39:12.592Z,10.81
2024-01-25T15:41:39.669Z,10.89
2024-01-25T15:44:06.757Z,10.98
2024-01-25T15:46:35.067Z,10.90
2024-01-25T15:49:02.879Z,10.82
2024-01-25T15:51:29.995Z,10.73
2024-01-25T15:53:57.066Z,10.71
2024-01-25T15:56:24.388Z,10.68
2024-01-25T15:58:51.456Z,10.64
2024-01-25T16:01:18.586Z,10.48
2024-01-25T16:03:45.851Z,10.45
2024-01-25T16:06:13.964Z,10.34
2024-01-25T16:08:41.757Z,10.38
2024-01-25T16:11:08.742Z,10.29
2024-01-25T16:13:35.944Z,10.17
2024-01-25T16:16:02.976Z,10.17
2024-01-25T16:18:30.189Z,10.19
2024-01-25T16:20:57.364Z,10.19
2024-01-25T16:23:24.816Z,10.25
2024-01-25T16:25:51.808Z,10.28
2024-01-25T16:28:19.202Z,10.23
2024-01-25T16:30:51.010Z,10.13
2024-01-25T16:33:18.484Z,10.11
2024-01-25T16:35:46.340Z,10.05
2024-01-25T16:38:14.057Z,9.94
2024-01-25T16:40:43.008Z,9.76
2024-01-25T16:43:10.500Z,9.74
2024-01-25T16:45:37.530Z,9.64
2024-01-25T16:48:05.032Z,9.44
2024-01-25T16:50:32.147Z,9.23
2024-01-25T16:52:59.559Z,9.09
2024-01-25T16:55:31.831Z,8.99
2024-01-25T16:57:59.415Z,8.98
2024-01-25T17:00:27.714Z,9.00
2024-01-25T17:02:55.363Z,9.03
2024-01-25T17:05:22.852Z,8.95
2024-01-25T17:07:50.723Z,8.84
2024-01-25T17:10:25.807Z,8.74
2024-01-25T17:12:55.127Z,8.77
2024-01-25T17:15:22.542Z,8.73
2024-01-25T17:17:53.435Z,8.68
2024-01-25T17:20:21.409Z,8.47
2024-01-25T17:22:48.770Z,8.28
2024-01-25T17:25:16.130Z,8.20
2024-01-25T17:27:44.150Z,8.11
2024-01-25T17:30:13.430Z,7.98
2024-01-25T17:32:43.008Z,7.79
2024-01-25T17:35:10.481Z,7.61
2024-01-25T17:37:37.887Z,7.47
2024-01-25T17:40:07.615Z,7.33
2024-01-25T17:42:38.615Z,7.40
2024-01-25T17:45:06.457Z,7.34
2024-01-25T17:47:34.067Z,7.34
2024-01-25T17:50:01.915Z,7.42
2024-01-25T17:52:29.415Z,7.39
2024-01-25T17:54:57.196Z,7.48
2024-01-25T17:57:25.107Z,7.45
2024-01-25T17:59:52.607Z,7.31
2024-01-25T18:02:20.283Z,7.17
2024-01-25T18:04:47.462Z,7.28
2024-01-25T18:07:17.111Z,7.17
2024-01-25T18:09:45.295Z,7.14
2024-01-25T18:12:13.352Z,7.00
2024-01-25T18:14:43.460Z,6.97
2024-01-25T18:17:11.102Z,6.87
2024-01-25T18:19:38.445Z,6.95
2024-01-25T18:22:06.685Z,7.10
2024-01-25T18:24:34.101Z,7.24
2024-01-25T18:27:02.574Z,7.23
2024-01-25T18:29:31.654Z,7.19
2024-01-25T18:32:02.500Z,7.17
2024-01-25T18:34:32.917Z,7.13
2024-01-25T18:37:00.443Z,7.13
2024-01-25T18:39:29.450Z,7.06
2024-01-25T18:41:57.934Z,7.13
2024-01-25T18:44:25.594Z,6.92
2024-01-25T18:46:53.554Z,6.63
2024-01-25T18:49:21.158Z,6.50
2024-01-25T18:51:51.218Z,6.49
2024-01-25T18:54:18.969Z,6.35
2024-01-25T18:56:46.814Z,6.34
2024-01-25T18:59:14.616Z,6.40
2024-01-25T19:01:45.360Z,6.52
2024-01-25T19:04:13.232Z,6.56
2024-01-25T19:06:45.964Z,6.68
2024-01-25T19:09:13.166Z,6.61
2024-01-25T19:11:40.127Z,6.37
2024-01-25T19:14:07.358Z,6.23
2024-01-25T19:16:34.302Z,6.07
2024-01-25T19:19:01.400Z,6.05
2024-01-25T19:21:28.958Z,5.96
2024-01-25T19:23:56.056Z,5.84
2024-01-25T19:26:23.413Z,5.71
2024-01-25T19:28:50.898Z,5.58
2024-01-25T19:31:17.985Z,5.48
2024-01-25T19:33:45.497Z,5.50
2024-01-25T19:36:12.511Z,5.44
2024-01-25T19:38:42.345Z,5.41
2024-01-25T19:41:10.400Z,5.49
2024-01-25T19:43:37.827Z,5.68
2024-01-25T19:46:07.984Z,5.74
2024-01-25T19:48:35.336Z,5.82
2024-01-25T19:51:02.517Z,5.84
2024-01-25T19:53:29.485Z,5.81
2024-01-25T19:55:56.561Z,5.81
2024-01-25T19:58:27.601Z,5.71
2024-01-25T20:00:55.500Z,5.61
2024-01-25T20:03:23.481Z,5.58
2024-01-25T20:05:51.708Z,5.45
2024-01-25T20:08:19.038Z,5.31
2024-01-25T20:10:46.082Z,5.30
2024-01-25T20:13:13.105Z,5.43
2024-01-25T20:15:42.505Z,5.40
2024-01-25T20:18:09.675Z,5.20
2024-01-25T20:20:43.313Z,5.20
2024-01-25T20:23:15.663Z,5.11
2024-01-25T20:25:42.889Z,5.07
2024-01-25T20:28:10.612Z,5.00
2024-01-25T20:30:42.384Z,4.86
2024-01-25T20:33:12.191Z,4.80
2024-01-25T20:35:41.207Z,4.82
2024-01-25T20:38:08.825Z,4.78
2024-01-25T20:40:38.215Z,4.68
2024-01-25T20:43:05.232Z,4.68
2024-01-25T20:45:32.509Z,4.62
2024-01-25T20:48:00.922Z,4.55
2024-01-25T20:50:36.914Z,4.58
2024-01-25T20:53:06.343Z,4.66
2024-01-25T20:55:34.875Z,4.67
2024-01-25T20:58:02.637Z,4.79
2024-01-25T21:00:30.120Z,4.81
2024-01-25T21:02:57.431Z,4.81
2024-01-25T21:05:24.933Z,4.88
2024-01-25T21:07:52.249Z,4.84
2024-01-25T21:13:03.948Z,4.54
2024-01-25T21:15:31.045Z,4.58
2024-01-25T21:17:58.492Z,4.51
2024-01-25T21:20:25.442Z,4.67
2024-01-25T21:22:52.595Z,4.88
2024-01-25T21:25:20.506Z,4.93
2024-01-25T21:27:47.808Z,4.85
2024-01-25T21:30:15.286Z,4.90
2024-01-25T21:32:43.202Z,4.98
2024-01-25T21:35:15.296Z,4.98
2024-01-25T21:37:44.490Z,5.06
2024-01-25T21:40:17.020Z,5.14
2024-01-25T21:42:44.551Z,5.08
2024-01-25T21:45:14.089Z,5.13
2024-01-25T21:47:44.722Z,5.08
2024-01-25T21:50:15.021Z,5.00
2024-01-25T21:52:45.357Z,4.93
2024-01-25T21:55:13.270Z,4.92
2024-01-25T21:57:50.497Z,4.90
2024-01-25T22:00:21.053Z,5.14
2024-01-25T22:02:51.806Z,5.28
2024-01-25T22:05:28.929Z,5.38
2024-01-25T22:07:58.063Z,5.33
2024-01-25T22:10:31.803Z,5.37
2024-01-25T22:13:02.475Z,5.65
2024-01-25T22:15:32.902Z,5.69
2024-01-25T22:18:00.223Z,5.81
2024-01-25T22:20:27.164Z,5.97
2024-01-25T22:22:54.125Z,5.98
2024-01-25T22:25:21.190Z,5.99
2024-01-25T22:27:48.458Z,6.03
2024-01-25T22:30:20.397Z,6.15
2024-01-25T22:32:48.136Z,6.39
2024-01-25T22:35:17.098Z,6.48
2024-01-25T22:37:44.648Z,6.70
2024-01-25T22:40:12.605Z,6.80
2024-01-25T22:42:42.660Z,6.75
2024-01-25T22:45:11.881Z,6.69
2024-01-25T22:47:38.940Z,6.78
2024-01-25T22:50:10.929Z,6.78
2024-01-25T22:52:44.667Z,6.67
2024-01-25T22:55:12.421Z,6.55
2024-01-25T22:57:39.429Z,6.52
2024-01-25T23:00:15.491Z,6.41
2024-01-25T23:02:42.895Z,6.42
2024-01-25T23:05:10.900Z,6.40
2024-01-25T23:07:37.964Z,6.42
2024-01-25T23:10:05.298Z,6.44
2024-01-25T23:12:32.528Z,6.48
2024-01-25T23:14:59.540Z,6.46
2024-01-25T23:17:26.509Z,6.32
2024-01-25T23:19:53.564Z,6.36
2024-01-25T23:22:20.667Z,6.44
2024-01-25T23:24:47.889Z,6.31
2024-01-25T23:27:14.898Z,6.23
2024-01-25T23:29:43.762Z,6.42
2024-01-25T23:32:10.847Z,6.44
2024-01-25T23:34:40.003Z,6.38
2024-01-25T23:37:07.139Z,6.31
2024-01-25T23:39:34.573Z,6.21
2024-01-25T23:42:02.001Z,6.27
2024-01-25T23:44:29.241Z,6.30
2024-01-25T23:46:56.312Z,6.25
2024-01-25T23:49:23.369Z,6.14
2024-01-25T23:51:50.993Z,6.05
2024-01-25T23:54:18.010Z,6.03
2024-01-25T23:56:45.104Z,6.09
2024-01-25T23:59:14.199Z,6.03
